createdAt,value
2019-03-18T00:01:25.889Z,1.90
2019-03-18T00:06:33.410Z,1.57
2019-03-18T00:11:40.341Z,2.03
2019-03-18T00:16:47.803Z,1.70
2019-03-18T00:21:54.437Z,1.70
2019-03-18T00:27:03.191Z,1.90
2019-03-18T00:32:09.711Z,2.30
2019-03-18T00:37:16.096Z,1.80
2019-03-18T00:42:22.489Z,1.70
2019-03-18T00:47:31.766Z,1.20
2019-03-18T00:52:38.098Z,1.60
2019-03-18T00:57:45.049Z,1.53
2019-03-18T01:02:51.854Z,1.43
2019-03-18T01:08:02.537Z,1.63
2019-03-18T01:13:12.603Z,1.53
2019-03-18T01:18:22.985Z,1.60
2019-03-18T01:23:29.096Z,1.90
2019-03-18T01:28:38.861Z,1.60
2019-03-18T01:33:46.110Z,1.83
2019-03-18T01:38:54.123Z,2.10
2019-03-18T01:44:04.557Z,2.20
2019-03-18T01:49:11.832Z,1.93
2019-03-18T01:54:18.231Z,2.00
2019-03-18T01:59:32.959Z,1.90
2019-03-18T02:04:39.103Z,1.73
2019-03-18T02:09:46.093Z,2.10
2019-03-18T02:14:53.004Z,1.47
2019-03-18T02:20:03.781Z,1.70
2019-03-18T02:25:15.362Z,1.60
2019-03-18T02:30:22.421Z,1.40
2019-03-18T02:35:29.240Z,1.60
2019-03-18T02:40:37.326Z,1.30
2019-03-18T02:45:43.835Z,1.60
2019-03-18T02:50:54.658Z,1.40
2019-03-18T02:56:01.515Z,1.60
2019-03-18T03:01:12.081Z,1.63
2019-03-18T03:06:18.225Z,1.60
2019-03-18T03:11:27.644Z,1.20
2019-03-18T03:16:37.924Z,1.40
2019-03-18T03:21:45.649Z,1.50
2019-03-18T03:26:52.546Z,1.40
2019-03-18T03:31:59.918Z,1.60
2019-03-18T03:37:09.333Z,1.77
2019-03-18T03:42:19.388Z,1.40
2019-03-18T03:47:27.017Z,1.40
2019-03-18T03:52:35.906Z,1.30
2019-03-18T03:57:42.270Z,1.27
2019-03-18T04:02:49.913Z,1.30
2019-03-18T04:07:59.821Z,1.47
2019-03-18T04:13:09.168Z,1.40
2019-03-18T04:18:18.319Z,1.30
2019-03-18T04:23:25.900Z,1.60
2019-03-18T04:28:34.509Z,1.50
2019-03-18T04:33:41.672Z,1.30
2019-03-18T04:38:48.230Z,1.30
2019-03-18T04:43:54.911Z,1.00
2019-03-18T04:49:05.141Z,1.30
2019-03-18T04:54:12.672Z,1.30
2019-03-18T04:59:20.220Z,1.20
2019-03-18T05:04:26.615Z,1.40
2019-03-18T05:09:33.549Z,2.10
2019-03-18T05:14:44.266Z,1.10
2019-03-18T05:19:52.332Z,1.20
2019-03-18T05:24:59.637Z,1.50
2019-03-18T05:30:09.623Z,1.40
2019-03-18T05:35:16.919Z,1.07
2019-03-18T05:40:23.836Z,1.40
2019-03-18T05:45:31.716Z,1.20
2019-03-18T05:50:38.918Z,1.20
2019-03-18T05:55:44.933Z,1.90
2019-03-18T06:00:52.858Z,1.57
2019-03-18T06:06:05.024Z,1.63
2019-03-18T06:11:17.929Z,1.87
2019-03-18T06:16:25.701Z,1.30
2019-03-18T06:21:33.845Z,1.60
2019-03-18T06:26:41.015Z,1.63
2019-03-18T06:31:47.959Z,1.37
2019-03-18T06:36:57.323Z,1.87
2019-03-18T06:42:08.128Z,1.70
2019-03-18T06:47:14.781Z,2.03
2019-03-18T06:52:21.700Z,1.87
2019-03-18T06:57:29.257Z,1.50
2019-03-18T07:02:36.240Z,1.63
2019-03-18T07:07:43.168Z,1.37
2019-03-18T07:12:50.419Z,1.40
2019-03-18T07:17:58.238Z,1.87
2019-03-18T07:23:09.112Z,1.67
2019-03-18T07:28:18.107Z,1.60
2019-03-18T07:33:25.218Z,1.90
2019-03-18T07:38:32.143Z,1.60
2019-03-18T07:43:39.462Z,1.70
2019-03-18T07:48:46.758Z,1.40
2019-03-18T07:53:53.710Z,1.83
2019-03-18T07:58:59.988Z,1.97
2019-03-18T08:04:08.236Z,2.07
2019-03-18T08:09:15.440Z,2.10
2019-03-18T09:04:10.455Z,1.83
2019-03-18T09:09:19.346Z,1.53
2019-03-18T09:14:26.378Z,1.60
2019-03-18T09:19:34.941Z,1.60
2019-03-18T09:24:44.024Z,1.53
2019-03-18T09:29:59.052Z,1.40
2019-03-18T09:35:10.021Z,1.90
2019-03-18T09:40:25.768Z,1.70
2019-03-18T09:45:33.717Z,1.57
2019-03-18T09:50:43.067Z,1.70
2019-03-18T09:55:50.236Z,1.73
2019-03-18T10:00:56.319Z,1.57
2019-03-18T10:06:07.980Z,2.00
2019-03-18T10:11:18.931Z,1.70
2019-03-18T10:16:35.375Z,2.10
2019-03-18T10:21:47.383Z,2.00
2019-03-18T10:26:52.976Z,1.93
2019-03-18T10:32:02.200Z,2.00
2019-03-18T10:37:10.691Z,1.60
2019-03-18T10:42:19.920Z,1.90
2019-03-18T10:47:33.901Z,1.70
2019-03-18T10:52:41.323Z,2.00
2019-03-18T10:57:51.033Z,1.40
2019-03-18T11:03:05.096Z,1.57
2019-03-18T11:08:09.882Z,1.60
2019-03-18T11:13:23.155Z,1.70
2019-03-18T11:18:32.368Z,1.60
2019-03-18T11:23:42.556Z,1.60
2019-03-18T11:28:48.801Z,1.77
2019-03-18T11:34:05.271Z,1.30
2019-03-18T11:39:10.790Z,1.60
2019-03-18T11:44:21.388Z,1.63
2019-03-18T11:49:39.574Z,1.73
2019-03-18T11:54:40.880Z,1.80
2019-03-18T11:59:49.168Z,1.60
2019-03-18T12:04:57.548Z,1.77
2019-03-18T12:10:04.963Z,1.70
2019-03-18T12:15:15.781Z,1.33
2019-03-18T12:20:25.507Z,1.60
2019-03-18T12:25:33.558Z,1.30
2019-03-18T12:30:40.645Z,1.43
2019-03-18T12:35:47.646Z,1.80
2019-03-18T12:40:54.196Z,1.57
2019-03-18T12:46:04.195Z,1.67
2019-03-18T12:51:11.604Z,1.93
2019-03-18T12:56:18.959Z,2.20
2019-03-18T13:01:25.725Z,1.93
2019-03-18T13:06:35.439Z,1.87
2019-03-18T13:11:42.688Z,1.70
2019-03-18T13:16:48.792Z,1.97
2019-03-18T13:22:00.177Z,1.60
2019-03-18T13:27:08.927Z,1.10
2019-03-18T13:32:16.391Z,1.17
2019-03-18T13:37:30.468Z,1.27
2019-03-18T13:42:34.819Z,1.30
2019-03-18T13:47:47.991Z,1.50
2019-03-18T13:52:52.148Z,1.70
2019-03-18T13:57:58.548Z,2.90
2019-03-18T14:03:07.688Z,1.30
2019-03-18T14:08:14.905Z,1.40
2019-03-18T14:13:25.557Z,1.77
2019-03-18T14:18:32.480Z,1.80
2019-03-18T14:23:43.818Z,1.10
2019-03-18T14:28:52.653Z,1.37
2019-03-18T14:34:00.077Z,0.90
2019-03-18T14:39:08.642Z,1.00
2019-03-18T14:44:21.040Z,1.10
2019-03-18T14:49:29.553Z,1.20
2019-03-18T14:54:37.182Z,1.10
2019-03-18T14:59:47.346Z,1.00
2019-03-18T15:04:54.032Z,1.10
2019-03-18T15:10:00.447Z,1.00
2019-03-18T15:15:11.528Z,1.40
2019-03-18T15:20:23.914Z,1.10
2019-03-18T15:25:43.151Z,1.40
2019-03-18T15:30:56.126Z,1.40
2019-03-18T15:36:09.931Z,1.33
2019-03-18T15:41:26.521Z,1.50
2019-03-18T15:46:29.911Z,1.37
2019-03-18T15:51:40.983Z,1.63
2019-03-18T15:56:48.637Z,1.70
2019-03-18T16:01:56.344Z,1.63
2019-03-18T16:07:13.624Z,1.93
2019-03-18T16:12:23.448Z,1.63
2019-03-18T16:17:31.593Z,2.20
2019-03-18T16:22:39.776Z,2.57
2019-03-18T16:27:46.781Z,2.20
2019-03-18T16:33:05.979Z,2.00
2019-03-18T16:38:12.027Z,2.17
2019-03-18T16:43:20.049Z,2.03
2019-03-18T16:48:28.917Z,2.23
2019-03-18T16:53:39.269Z,2.53
2019-03-18T16:58:48.102Z,2.00
2019-03-18T17:03:58.211Z,2.27
2019-03-18T17:09:09.282Z,2.00
2019-03-18T17:14:26.122Z,2.40
2019-03-18T17:19:36.011Z,1.87
2019-03-18T17:24:44.534Z,1.70
2019-03-18T17:29:52.042Z,1.80
2019-03-18T17:35:01.542Z,2.10
2019-03-18T17:40:18.275Z,2.10
2019-03-18T17:45:24.937Z,1.33
2019-03-18T17:50:32.157Z,1.80
2019-03-18T17:55:46.341Z,1.83
2019-03-18T18:01:10.581Z,2.53
2019-03-18T18:06:19.624Z,1.67
2019-03-18T18:11:26.242Z,2.03
2019-03-18T18:21:49.134Z,2.23
2019-03-18T18:26:57.287Z,2.80
2019-03-18T18:32:05.604Z,1.70
2019-03-18T18:37:18.713Z,1.97
2019-03-18T18:42:26.421Z,1.90
2019-03-18T18:47:34.373Z,2.10
2019-03-18T18:52:48.746Z,1.57
2019-03-18T18:58:06.857Z,1.40
2019-03-18T19:03:17.697Z,1.73
2019-03-18T19:08:30.994Z,1.70
2019-03-18T19:13:37.698Z,1.60
2019-03-18T19:18:52.023Z,2.13
2019-03-18T19:24:00.972Z,2.27
2019-03-18T19:29:09.452Z,1.70
2019-03-18T19:34:22.582Z,1.83
2019-03-18T19:39:35.223Z,2.30
2019-03-18T19:44:45.591Z,1.83
2019-03-18T19:49:59.983Z,2.30
2019-03-18T20:01:24.262Z,2.10
2019-03-18T20:06:32.350Z,2.20
2019-03-18T20:11:44.914Z,2.43
2019-03-18T20:16:57.781Z,2.20
2019-03-18T20:22:04.281Z,3.00
2019-03-18T20:27:13.879Z,2.97
2019-03-18T20:32:24.104Z,2.47
2019-03-18T20:37:36.909Z,2.27
2019-03-18T20:42:45.167Z,2.00
2019-03-18T20:47:53.131Z,2.37
2019-03-18T20:53:03.920Z,2.20
2019-03-18T20:58:13.165Z,2.33
2019-03-18T21:03:20.457Z,2.60
2019-03-18T21:08:32.146Z,2.20
2019-03-18T21:13:44.924Z,2.37
2019-03-18T21:18:56.064Z,2.40
2019-03-18T21:24:03.962Z,3.10
2019-03-18T21:29:10.520Z,2.60
2019-03-18T21:34:16.699Z,2.17
2019-03-18T21:39:25.680Z,1.60
2019-03-18T21:44:34.835Z,1.90
2019-03-18T21:49:51.631Z,2.20
2019-03-18T21:55:25.721Z,2.23
2019-03-18T22:00:33.277Z,2.30
2019-03-18T22:05:40.532Z,2.10
2019-03-18T22:10:52.663Z,2.20
2019-03-18T22:16:02.852Z,2.50
2019-03-18T22:21:09.930Z,2.87
2019-03-18T22:26:19.791Z,2.57
2019-03-18T22:31:27.846Z,3.07
2019-03-18T22:36:36.095Z,2.83
2019-03-18T22:41:45.252Z,2.20
2019-03-18T22:46:52.615Z,3.10
2019-03-18T22:51:59.094Z,3.30
2019-03-18T22:57:05.274Z,3.30
2019-03-18T23:02:13.354Z,2.43
2019-03-18T23:07:19.484Z,2.90
2019-03-18T23:12:28.335Z,2.90
2019-03-18T23:17:38.941Z,3.10
2019-03-18T23:22:46.331Z,2.50
2019-03-18T23:27:53.380Z,2.90
2019-03-18T23:33:00.150Z,2.80
2019-03-18T23:38:07.244Z,2.60
2019-03-18T23:43:15.186Z,2.70
2019-03-18T23:48:47.409Z,3.13
2019-03-18T23:53:57.561Z,2.70
2019-03-18T23:59:08.313Z,2.63
